createdAt,value
2022-09-22T00:01:08.261Z,16.52
2022-09-22T00:03:46.167Z,14.32
2022-09-22T00:06:18.248Z,17.35
2022-09-22T00:08:48.295Z,16.42
2022-09-22T00:11:17.368Z,15.73
2022-09-22T00:13:46.069Z,17.92
2022-09-22T00:16:14.359Z,19.67
2022-09-22T00:18:40.970Z,15.80
2022-09-22T00:21:09.342Z,15.50
2022-09-22T00:23:36.786Z,11.95
2022-09-22T00:26:08.219Z,11.13
2022-09-22T00:28:34.908Z,11.30
2022-09-22T00:31:05.357Z,11.13
2022-09-22T00:33:32.251Z,11.77
2022-09-22T00:36:00.041Z,10.80
2022-09-22T00:38:26.847Z,11.48
2022-09-22T00:40:53.607Z,12.75
2022-09-22T00:43:24.960Z,14.43
2022-09-22T00:45:58.361Z,16.47
2022-09-22T00:48:25.967Z,15.50
2022-09-22T00:50:53.851Z,19.25
2022-09-22T00:53:21.178Z,44.72
2022-09-22T00:55:53.610Z,29.30
2022-09-22T00:58:25.630Z,44.40
2022-09-22T01:00:52.194Z,48.40
2022-09-22T01:03:20.924Z,39.95
2022-09-22T01:05:49.044Z,23.05
2022-09-22T01:08:16.882Z,23.52
2022-09-22T01:10:43.428Z,18.10
2022-09-22T01:13:31.164Z,15.13
2022-09-22T01:16:03.488Z,19.40
2022-09-22T01:21:21.367Z,17.98
2022-09-22T01:24:06.604Z,29.13
2022-09-22T01:26:50.122Z,26.98
2022-09-22T01:29:35.278Z,20.27
2022-09-22T01:32:07.881Z,18.45
2022-09-22T01:34:50.519Z,16.55
2022-09-22T01:37:23.376Z,15.57
2022-09-22T01:40:02.393Z,16.77
2022-09-22T01:42:39.506Z,13.35
2022-09-22T01:45:11.592Z,13.13
2022-09-22T01:47:44.047Z,12.30
2022-09-22T01:50:18.250Z,14.45
2022-09-22T01:52:44.827Z,13.57
2022-09-22T01:55:23.613Z,17.40
2022-09-22T01:58:01.032Z,12.77
2022-09-22T02:00:27.894Z,17.05
2022-09-22T02:03:01.139Z,12.88
2022-09-22T02:05:34.504Z,10.70
2022-09-22T02:08:03.362Z,11.88
2022-09-22T02:10:36.221Z,10.32
2022-09-22T02:13:02.696Z,10.20
2022-09-22T02:15:48.132Z,12.68
2022-09-22T02:18:27.847Z,12.13
2022-09-22T02:20:54.212Z,16.85
2022-09-22T02:23:20.623Z,14.90
2022-09-22T02:25:47.694Z,19.30
2022-09-22T02:28:16.415Z,19.63
2022-09-22T02:30:59.117Z,15.55
2022-09-22T02:33:38.058Z,15.50
2022-09-22T02:36:13.787Z,17.00
2022-09-22T02:38:49.520Z,23.05
2022-09-22T02:41:26.512Z,16.10
2022-09-22T02:44:03.372Z,14.75
2022-09-22T02:46:38.860Z,21.58
2022-09-22T02:49:17.352Z,15.15
2022-09-22T02:51:43.874Z,15.57
2022-09-22T02:54:10.225Z,12.10
2022-09-22T02:56:36.603Z,19.05
2022-09-22T02:59:03.040Z,15.48
2022-09-22T03:01:29.619Z,13.10
2022-09-22T03:03:56.106Z,10.30
2022-09-22T03:06:22.664Z,13.55
2022-09-22T03:08:49.082Z,12.27
2022-09-22T03:11:15.442Z,12.18
2022-09-22T03:13:41.807Z,13.65
2022-09-22T03:16:09.106Z,17.58
2022-09-22T03:18:35.514Z,54.38
2022-09-22T03:21:01.867Z,97.25
2022-09-22T03:23:28.764Z,34.67
2022-09-22T03:25:55.106Z,20.50
2022-09-22T03:28:21.606Z,16.55
2022-09-22T03:30:47.998Z,14.02
2022-09-22T03:33:14.572Z,13.40
2022-09-22T03:35:41.219Z,14.80
2022-09-22T03:38:07.588Z,14.95
2022-09-22T03:40:34.131Z,19.15
2022-09-22T03:43:00.655Z,17.08
2022-09-22T03:45:27.887Z,15.30
2022-09-22T03:47:54.561Z,34.88
2022-09-22T03:50:21.297Z,32.35
2022-09-22T03:52:47.712Z,29.60
2022-09-22T03:55:14.139Z,28.20
2022-09-22T03:57:40.831Z,21.40
2022-09-22T04:00:08.572Z,24.83
2022-09-22T04:02:35.076Z,16.23
2022-09-22T04:05:01.503Z,16.13
2022-09-22T04:07:27.850Z,12.13
2022-09-22T04:09:54.249Z,12.65
2022-09-22T04:12:20.604Z,13.75
2022-09-22T04:14:47.031Z,13.13
2022-09-22T04:17:13.618Z,17.02
2022-09-22T04:19:39.992Z,11.80
2022-09-22T04:22:06.350Z,13.73
2022-09-22T04:24:32.995Z,14.45
2022-09-22T04:27:19.194Z,16.25
2022-09-22T04:29:45.712Z,13.18
2022-09-22T04:32:12.137Z,15.93
2022-09-22T04:34:38.567Z,11.95
2022-09-22T04:37:05.022Z,12.55
2022-09-22T04:39:31.436Z,14.68
2022-09-22T04:41:57.799Z,13.93
2022-09-22T04:44:24.160Z,14.80
2022-09-22T04:46:50.605Z,11.70
2022-09-22T04:49:17.999Z,13.55
2022-09-22T04:51:44.570Z,10.80
2022-09-22T04:54:10.962Z,12.95
2022-09-22T04:56:37.324Z,19.27
2022-09-22T04:59:03.738Z,11.30
2022-09-22T05:01:30.163Z,10.48
2022-09-22T05:03:56.596Z,11.10
2022-09-22T05:06:22.953Z,12.13
2022-09-22T05:08:49.330Z,13.60
2022-09-22T05:11:15.683Z,12.55
2022-09-22T05:13:42.063Z,11.95
2022-09-22T05:16:08.618Z,10.80
2022-09-22T05:18:35.140Z,10.38
2022-09-22T05:21:01.932Z,11.35
2022-09-22T05:23:28.405Z,11.93
2022-09-22T05:25:54.844Z,17.10
2022-09-22T05:28:24.190Z,12.50
2022-09-22T05:30:51.470Z,10.70
2022-09-22T05:33:17.892Z,13.18
2022-09-22T05:35:44.347Z,10.68
2022-09-22T05:38:10.717Z,10.60
2022-09-22T05:40:37.124Z,10.00
2022-09-22T05:43:03.519Z,12.15
2022-09-22T05:45:29.971Z,11.32
2022-09-22T05:47:56.369Z,12.77
2022-09-22T05:50:23.838Z,12.10
2022-09-22T05:52:50.432Z,10.10
2022-09-22T05:55:16.871Z,13.65
2022-09-22T05:57:43.869Z,12.32
2022-09-22T06:00:11.068Z,12.93
2022-09-22T06:02:38.163Z,11.18
2022-09-22T06:05:04.783Z,15.35
2022-09-22T06:07:31.196Z,12.77
2022-09-22T06:09:57.639Z,12.95
2022-09-22T06:12:24.050Z,13.60
2022-09-22T06:14:50.432Z,11.27
2022-09-22T06:17:16.781Z,17.40
2022-09-22T06:19:43.228Z,17.10
2022-09-22T06:22:11.190Z,16.38
2022-09-22T06:24:37.920Z,18.30
2022-09-22T06:27:04.621Z,16.67
2022-09-22T06:29:31.068Z,14.60
2022-09-22T06:31:57.468Z,15.20
2022-09-22T06:34:23.885Z,17.05
2022-09-22T06:36:50.266Z,15.10
2022-09-22T06:39:16.644Z,17.38
2022-09-22T06:41:44.640Z,16.38
2022-09-22T06:44:14.242Z,19.63
2022-09-22T06:46:41.902Z,20.08
2022-09-22T06:49:08.338Z,21.15
2022-09-22T06:51:35.937Z,17.45
2022-09-22T06:54:05.122Z,16.48
2022-09-22T06:56:36.619Z,17.05
2022-09-22T06:59:10.250Z,17.65
2022-09-22T07:01:37.802Z,20.85
2022-09-22T07:04:04.620Z,15.77
2022-09-22T07:06:31.479Z,16.48
2022-09-22T07:08:57.859Z,31.83
2022-09-22T07:11:24.261Z,21.00
2022-09-22T07:13:54.451Z,20.70
2022-09-22T07:16:23.029Z,18.90
2022-09-22T07:18:54.544Z,16.35
2022-09-22T07:21:23.982Z,16.50
2022-09-22T07:23:51.925Z,18.38
2022-09-22T07:26:21.874Z,17.17
2022-09-22T07:28:51.877Z,15.63
2022-09-22T07:31:18.406Z,15.63
2022-09-22T07:33:46.142Z,14.10
2022-09-22T07:36:18.449Z,18.58
2022-09-22T07:41:14.605Z,12.48
2022-09-22T07:43:41.644Z,14.85
2022-09-22T07:46:08.475Z,12.45
2022-09-22T07:48:37.520Z,11.00
2022-09-22T07:51:06.264Z,12.02
2022-09-22T07:53:32.753Z,13.07
2022-09-22T07:56:06.259Z,12.30
2022-09-22T07:58:33.387Z,16.55
2022-09-22T08:01:06.456Z,14.35
2022-09-22T08:03:34.029Z,11.80
2022-09-22T08:06:08.050Z,14.25
2022-09-22T08:08:34.610Z,8.63
2022-09-22T08:11:14.992Z,20.08
2022-09-22T08:13:44.283Z,12.20
2022-09-22T08:16:11.778Z,10.05
2022-09-22T08:18:39.604Z,9.70
2022-09-22T08:21:06.998Z,10.80
2022-09-22T08:23:33.417Z,8.75
2022-09-22T08:26:05.387Z,8.90
2022-09-22T08:28:32.301Z,7.07
2022-09-22T08:30:59.173Z,7.63
2022-09-22T08:33:26.546Z,11.82
2022-09-22T08:35:54.406Z,4.13
2022-09-22T08:38:23.067Z,9.35
2022-09-22T08:41:18.129Z,6.10
2022-09-22T08:43:46.983Z,5.85
2022-09-22T08:46:13.770Z,3.83
2022-09-22T08:49:01.348Z,5.70
2022-09-22T08:51:52.046Z,5.65
2022-09-22T08:54:20.322Z,5.32
2022-09-22T08:57:11.295Z,5.63
2022-09-22T08:59:43.917Z,5.38
2022-09-22T09:02:33.943Z,6.30
2022-09-22T09:05:28.475Z,7.20
2022-09-22T09:08:28.441Z,12.05
2022-09-22T09:10:57.060Z,10.52
2022-09-22T09:14:14.116Z,6.15
2022-09-22T09:16:58.193Z,8.20
2022-09-22T09:19:43.826Z,7.38
2022-09-22T09:22:42.690Z,6.03
2022-09-22T09:25:27.134Z,8.88
2022-09-22T09:28:06.341Z,8.95
2022-09-22T09:30:40.470Z,5.82
2022-09-22T09:33:16.936Z,8.32
2022-09-22T09:35:50.267Z,6.72
2022-09-22T09:38:19.281Z,5.35
2022-09-22T09:40:49.428Z,6.93
2022-09-22T09:43:16.077Z,5.18
2022-09-22T09:46:04.383Z,4.63
2022-09-22T09:48:45.947Z,7.28
2022-09-22T09:51:13.579Z,6.93
2022-09-22T09:53:44.902Z,3.58
2022-09-22T09:56:31.753Z,4.50
2022-09-22T09:59:25.009Z,5.30
2022-09-22T10:01:53.865Z,5.85
2022-09-22T10:04:29.091Z,3.85
2022-09-22T10:07:12.809Z,4.10
2022-09-22T10:09:40.285Z,4.93
2022-09-22T10:12:23.786Z,4.22
2022-09-22T10:14:52.185Z,3.53
2022-09-22T10:17:21.801Z,2.30
2022-09-22T10:19:48.205Z,2.05
2022-09-22T10:22:24.254Z,3.67
2022-09-22T10:24:57.041Z,3.05
2022-09-22T10:27:25.058Z,2.15
2022-09-22T10:30:21.238Z,3.35
2022-09-22T10:33:11.487Z,4.43
2022-09-22T10:35:38.154Z,4.45
2022-09-22T10:38:19.743Z,6.80
2022-09-22T10:41:23.210Z,4.68
2022-09-22T10:43:55.893Z,2.67
2022-09-22T10:47:06.142Z,2.00
2022-09-22T10:50:04.898Z,3.28
2022-09-22T10:52:49.986Z,7.25
2022-09-22T10:55:28.299Z,4.15
2022-09-22T10:58:09.848Z,5.72
2022-09-22T11:00:39.252Z,6.47
2022-09-22T11:03:18.245Z,3.15
2022-09-22T11:06:02.824Z,3.35
2022-09-22T11:09:00.856Z,2.33
2022-09-22T11:11:48.211Z,2.75
2022-09-22T11:14:14.483Z,1.80
2022-09-22T11:17:03.952Z,2.42
2022-09-22T11:19:43.146Z,2.80
2022-09-22T11:22:23.967Z,2.67
2022-09-22T11:25:26.077Z,2.33
2022-09-22T11:28:04.454Z,4.47
2022-09-22T11:30:35.251Z,3.50
2022-09-22T11:33:24.505Z,1.42
2022-09-22T11:36:21.430Z,2.65
2022-09-22T11:39:18.805Z,3.47
2022-09-22T11:42:10.067Z,4.90
2022-09-22T11:44:40.882Z,4.03
2022-09-22T11:47:28.942Z,2.08
2022-09-22T11:50:44.858Z,3.05
2022-09-22T11:53:23.601Z,2.38
2022-09-22T11:56:15.706Z,2.72
2022-09-22T11:58:44.470Z,1.65
2022-09-22T12:01:21.867Z,1.65
2022-09-22T12:03:53.716Z,2.33
2022-09-22T12:06:26.156Z,1.45
2022-09-22T12:09:03.424Z,1.73
2022-09-22T12:11:36.002Z,1.95
2022-09-22T12:14:03.196Z,1.83
2022-09-22T12:16:50.123Z,2.83
2022-09-22T12:19:39.570Z,5.30
2022-09-22T12:22:16.779Z,3.03
2022-09-22T12:24:46.965Z,1.65
2022-09-22T12:27:22.263Z,1.23
2022-09-22T12:30:00.837Z,2.92
2022-09-22T12:32:39.250Z,1.35
2022-09-22T12:35:06.673Z,2.45
2022-09-22T12:37:36.374Z,4.10
2022-09-22T12:40:35.407Z,2.45
2022-09-22T12:43:01.858Z,2.13
2022-09-22T12:45:34.719Z,1.30
2022-09-22T12:48:09.799Z,3.72
2022-09-22T12:50:39.905Z,1.27
2022-09-22T12:53:25.900Z,1.27
2022-09-22T12:55:56.208Z,2.92
2022-09-22T12:58:23.350Z,1.30
2022-09-22T13:00:52.002Z,2.22
2022-09-22T13:03:24.823Z,3.50
2022-09-22T13:05:55.917Z,1.95
2022-09-22T13:08:31.189Z,0.80
2022-09-22T13:10:59.459Z,1.40
2022-09-22T13:13:31.925Z,2.08
2022-09-22T13:16:00.584Z,1.50
2022-09-22T13:18:29.944Z,2.45
2022-09-22T13:21:02.775Z,2.40
2022-09-22T13:23:29.515Z,1.10
2022-09-22T13:26:05.693Z,1.17
2022-09-22T13:28:32.059Z,1.15
2022-09-22T13:31:18.703Z,2.05
2022-09-22T13:33:45.113Z,1.23
2022-09-22T13:36:17.529Z,0.93
2022-09-22T13:38:51.045Z,1.10
2022-09-22T13:41:23.960Z,0.65
2022-09-22T13:43:54.789Z,0.82
2022-09-22T13:46:28.142Z,1.13
2022-09-22T13:48:55.815Z,0.60
2022-09-22T13:51:22.296Z,1.08
2022-09-22T13:53:53.916Z,1.20
2022-09-22T13:56:22.104Z,1.67
2022-09-22T13:58:50.105Z,2.05
2022-09-22T14:01:22.575Z,2.50
2022-09-22T14:03:50.441Z,0.52
2022-09-22T14:06:25.872Z,0.95
2022-09-22T14:08:53.151Z,0.50
2022-09-22T14:11:22.301Z,0.90
2022-09-22T14:13:54.851Z,2.08
2022-09-22T14:16:33.157Z,0.93
2022-09-22T14:19:17.701Z,0.40
2022-09-22T14:21:51.269Z,0.80
2022-09-22T14:24:18.069Z,0.50
2022-09-22T14:26:53.514Z,0.50
2022-09-22T14:29:32.992Z,1.15
2022-09-22T14:32:11.849Z,0.90
2022-09-22T14:34:39.507Z,0.75
2022-09-22T14:37:20.370Z,0.82
2022-09-22T14:39:47.197Z,0.40
2022-09-22T14:42:20.399Z,1.13
2022-09-22T14:44:50.357Z,1.63
2022-09-22T14:47:26.089Z,2.20
2022-09-22T14:50:27.978Z,1.25
2022-09-22T14:53:17.772Z,1.40
2022-09-22T14:55:47.296Z,2.20
2022-09-22T14:58:17.440Z,3.80
2022-09-22T15:01:18.233Z,1.92
2022-09-22T15:03:53.226Z,1.77
2022-09-22T15:06:23.126Z,2.45
2022-09-22T15:08:52.200Z,1.17
2022-09-22T15:11:18.873Z,3.17
2022-09-22T15:13:47.469Z,0.80
2022-09-22T15:16:40.346Z,1.00
2022-09-22T15:19:11.880Z,1.83
2022-09-22T15:21:40.519Z,2.67
2022-09-22T15:24:06.920Z,1.42
2022-09-22T15:26:33.436Z,1.10
2022-09-22T15:29:01.140Z,2.50
2022-09-22T15:31:28.150Z,3.72
2022-09-22T15:34:01.184Z,1.55
2022-09-22T15:36:30.520Z,1.13
2022-09-22T15:39:08.174Z,0.80
2022-09-22T15:41:34.855Z,1.10
2022-09-22T15:44:02.362Z,1.10
2022-09-22T15:46:33.841Z,1.30
2022-09-22T15:49:25.928Z,2.78
2022-09-22T15:51:52.863Z,2.20
2022-09-22T15:54:21.724Z,3.30
2022-09-22T15:56:51.236Z,2.28
2022-09-22T15:59:22.847Z,1.08
2022-09-22T16:04:15.644Z,1.58
2022-09-22T16:06:43.940Z,3.28
2022-09-22T16:09:19.068Z,2.20
2022-09-22T16:11:45.431Z,3.25
2022-09-22T16:14:12.080Z,1.80
2022-09-22T16:16:38.731Z,2.53
2022-09-22T16:19:09.389Z,1.80
2022-09-22T16:21:38.491Z,3.35
2022-09-22T16:24:08.323Z,1.85
2022-09-22T16:26:36.860Z,2.97
2022-09-22T16:29:04.344Z,4.70
2022-09-22T16:31:31.335Z,2.35
2022-09-22T16:34:00.340Z,5.15
2022-09-22T16:36:29.183Z,5.68
2022-09-22T16:38:55.688Z,3.97
2022-09-22T16:41:34.047Z,3.85
2022-09-22T16:44:01.010Z,5.55
2022-09-22T16:46:28.856Z,4.88
2022-09-22T16:49:23.170Z,6.03
2022-09-22T16:51:50.479Z,5.30
2022-09-22T16:54:18.272Z,3.40
2022-09-22T16:56:46.110Z,6.28
2022-09-22T16:59:15.877Z,6.55
2022-09-22T17:01:43.665Z,6.22
2022-09-22T17:04:12.322Z,9.70
2022-09-22T17:06:40.594Z,7.20
2022-09-22T17:09:08.271Z,3.65
2022-09-22T17:11:37.036Z,3.42
2022-09-22T17:14:11.296Z,2.95
2022-09-22T17:16:47.251Z,2.05
2022-09-22T17:19:17.054Z,2.75
2022-09-22T17:21:43.726Z,3.70
2022-09-22T17:24:10.125Z,2.97
2022-09-22T17:26:47.215Z,3.65
2022-09-22T17:29:18.863Z,2.97
2022-09-22T17:31:47.900Z,4.18
2022-09-22T17:34:14.648Z,3.45
2022-09-22T17:36:41.045Z,3.95
2022-09-22T17:39:10.141Z,2.38
2022-09-22T17:41:41.482Z,3.30
2022-09-22T17:44:10.149Z,2.53
2022-09-22T17:46:36.557Z,2.92
2022-09-22T17:49:21.477Z,1.88
2022-09-22T17:52:08.269Z,2.05
2022-09-22T17:54:57.984Z,1.50
2022-09-22T17:57:28.895Z,1.75
2022-09-22T17:59:56.396Z,2.10
2022-09-22T18:02:24.458Z,1.92
2022-09-22T18:04:51.599Z,6.78
2022-09-22T18:07:20.470Z,2.35
2022-09-22T18:09:48.368Z,2.85
2022-09-22T18:12:20.148Z,2.50
2022-09-22T18:14:48.312Z,4.88
2022-09-22T18:17:16.877Z,2.65
2022-09-22T18:19:43.792Z,1.30
2022-09-22T18:22:16.560Z,3.00
2022-09-22T18:24:45.093Z,2.58
2022-09-22T18:27:14.258Z,1.80
2022-09-22T18:29:40.758Z,2.53
2022-09-22T18:32:07.225Z,3.85
2022-09-22T18:34:33.626Z,3.63
2022-09-22T18:37:01.253Z,3.80
2022-09-22T18:39:28.709Z,3.78
2022-09-22T18:41:55.292Z,2.25
2022-09-22T18:44:22.218Z,1.90
2022-09-22T18:46:48.931Z,8.00
2022-09-22T18:49:16.381Z,3.10
2022-09-22T18:51:51.435Z,2.20
2022-09-22T18:54:19.366Z,6.90
2022-09-22T18:56:46.873Z,2.75
2022-09-22T18:59:18.652Z,4.80
2022-09-22T19:01:46.279Z,3.55
2022-09-22T19:04:17.414Z,1.83
2022-09-22T19:07:03.494Z,3.88
2022-09-22T19:09:29.933Z,3.03
2022-09-22T19:11:56.976Z,3.97
2022-09-22T19:14:24.352Z,3.47
2022-09-22T19:16:51.324Z,6.80
2022-09-22T19:19:20.322Z,6.13
2022-09-22T19:21:51.533Z,3.47
2022-09-22T19:24:18.808Z,3.03
2022-09-22T19:26:45.514Z,4.97
2022-09-22T19:29:12.410Z,2.85
2022-09-22T19:31:41.066Z,2.10
2022-09-22T19:34:09.040Z,6.15
2022-09-22T19:36:35.949Z,4.90
2022-09-22T19:39:02.332Z,4.47
2022-09-22T19:41:28.757Z,5.00
2022-09-22T19:43:55.680Z,3.35
2022-09-22T19:46:23.168Z,2.42
2022-09-22T19:48:49.959Z,2.88
2022-09-22T19:51:16.416Z,4.07
2022-09-22T19:53:42.779Z,2.78
2022-09-22T19:56:09.248Z,7.05
2022-09-22T19:58:36.067Z,3.47
2022-09-22T20:01:02.416Z,5.22
2022-09-22T20:03:28.855Z,4.22
2022-09-22T20:05:55.209Z,2.45
2022-09-22T20:08:22.554Z,3.78
2022-09-22T20:11:06.169Z,7.63
2022-09-22T20:13:59.791Z,4.38
2022-09-22T20:16:28.085Z,4.50
2022-09-22T20:18:54.983Z,3.53
2022-09-22T20:21:21.466Z,4.22
2022-09-22T20:23:47.838Z,6.18
2022-09-22T20:26:14.286Z,4.80
2022-09-22T20:28:41.405Z,7.28
2022-09-22T20:31:11.924Z,4.78
2022-09-22T20:33:38.880Z,4.10
2022-09-22T20:36:05.960Z,5.50
2022-09-22T20:38:33.727Z,6.72
2022-09-22T20:41:01.096Z,3.63
2022-09-22T20:43:28.775Z,6.55
2022-09-22T20:46:04.303Z,7.80
2022-09-22T20:48:30.780Z,4.22
2022-09-22T20:50:58.001Z,4.43
2022-09-22T20:53:24.627Z,7.85
2022-09-22T20:56:17.522Z,7.05
2022-09-22T20:58:45.565Z,6.88
2022-09-22T21:01:14.111Z,8.02
2022-09-22T21:03:40.590Z,6.07
2022-09-22T21:06:09.568Z,6.50
2022-09-22T21:08:59.175Z,6.88
2022-09-22T21:11:26.408Z,7.80
2022-09-22T21:13:58.689Z,11.05
2022-09-22T21:18:51.744Z,7.20
2022-09-22T21:21:19.655Z,7.32
2022-09-22T21:23:48.267Z,8.52
2022-09-22T21:26:15.929Z,7.88
2022-09-22T21:28:42.897Z,5.93
2022-09-22T21:31:10.493Z,6.72
2022-09-22T21:33:37.686Z,12.35
2022-09-22T21:36:13.628Z,8.10
2022-09-22T21:38:44.527Z,9.77
2022-09-22T21:41:14.161Z,9.35
2022-09-22T21:43:40.704Z,8.65
2022-09-22T21:46:12.374Z,9.13
2022-09-22T21:48:38.870Z,10.32
2022-09-22T21:51:07.938Z,9.10
2022-09-22T21:53:35.455Z,9.93
2022-09-22T21:56:07.262Z,9.32
2022-09-22T21:58:36.203Z,11.52
2022-09-22T22:01:14.451Z,12.85
2022-09-22T22:03:42.419Z,9.35
2022-09-22T22:06:15.862Z,10.98
2022-09-22T22:08:55.440Z,12.50
2022-09-22T22:11:24.326Z,15.57
2022-09-22T22:13:52.978Z,59.50
2022-09-22T22:16:21.512Z,42.85
2022-09-22T22:18:48.376Z,24.85
2022-09-22T22:21:18.129Z,10.70
2022-09-22T22:23:49.248Z,9.90
2022-09-22T22:26:19.881Z,9.70
2022-09-22T22:28:47.638Z,9.23
2022-09-22T22:31:16.239Z,13.18
2022-09-22T22:33:43.367Z,13.05
2022-09-22T22:36:12.843Z,9.57
2022-09-22T22:38:40.101Z,12.05
2022-09-22T22:41:06.409Z,8.10
2022-09-22T22:43:33.099Z,8.93
2022-09-22T22:45:59.766Z,10.40
2022-09-22T22:48:26.732Z,9.43
2022-09-22T22:50:53.912Z,11.00
2022-09-22T22:53:21.085Z,9.75
2022-09-22T22:55:59.546Z,8.48
2022-09-22T22:58:28.567Z,10.48
2022-09-22T23:01:12.663Z,9.70
2022-09-22T23:03:41.311Z,10.52
2022-09-22T23:06:19.443Z,10.07
2022-09-22T23:08:46.240Z,8.25
2022-09-22T23:11:24.503Z,14.32
2022-09-22T23:13:53.360Z,13.48
2022-09-22T23:16:23.574Z,13.00
2022-09-22T23:18:51.093Z,9.52
2022-09-22T23:21:19.521Z,10.32
2022-09-22T23:23:48.025Z,8.52
2022-09-22T23:26:15.619Z,9.57
2022-09-22T23:28:42.742Z,11.75
2022-09-22T23:31:14.674Z,9.48
2022-09-22T23:33:44.140Z,12.90
2022-09-22T23:36:13.280Z,16.38
2022-09-22T23:38:39.645Z,28.63
2022-09-22T23:41:06.142Z,35.65
2022-09-22T23:43:33.194Z,34.17
2022-09-22T23:46:00.021Z,30.20
2022-09-22T23:48:29.191Z,17.23
2022-09-22T23:50:55.575Z,9.80
2022-09-22T23:53:24.219Z,15.55
2022-09-22T23:55:51.164Z,13.43
2022-09-22T23:58:18.756Z,15.38
